Humbird, Wisconsin
Current Conditions -  °F | °C
As of 1:15 PM on Tuesday 21 Oct 2014 (Local Time) from KBCK Reporting Station
Scattered Clouds Scattered Clouds  
Wind Chill: 52°   Ceiling: Unl
Heat Index: 52°   Visibility: 10mi
Dew Point: 35°   Wind: 0mph
Humidity: 52%   Direction: NA
Pressure: 30.23"   Gusts: NA
Location:  44.53°N, 90.89°W
Report Text: KBCK 211815Z AUTO 00000KT 10SM SCT029 11/02 A3023 RMK AO2 T01100015
Loading
Personal Weather Stations






























Interactive Weather Map
Tropical Storm Tracking
New forecast layout! Learn more

10-Day Weather Forecast

Advertisements
Track Severe Weather on mobile